sensor_id;sensor_type;location;lat;lon;timestamp;pressure;altitude;pressure_sealevel;temperature;humidity
13387;BME280;6763;48.524;9.044;2023-04-27T00:01:13;97853.41;;;13.08;45.47
13387;BME280;6763;48.524;9.044;2023-04-27T00:03:39;97850.88;;;13.07;44.82
13387;BME280;6763;48.524;9.044;2023-04-27T00:06:07;97849.94;;;13.07;45.42
13387;BME280;6763;48.524;9.044;2023-04-27T00:08:33;97842.16;;;13.07;45.68
13387;BME280;6763;48.524;9.044;2023-04-27T00:10:59;97841.34;;;13.07;45.21
13387;BME280;6763;48.524;9.044;2023-04-27T00:13:24;97843.06;;;13.05;45.67
13387;BME280;6763;48.524;9.044;2023-04-27T00:15:50;97838.78;;;13.04;45.30
13387;BME280;6763;48.524;9.044;2023-04-27T00:18:15;97845.66;;;13.05;45.55
13387;BME280;6763;48.524;9.044;2023-04-27T00:20:40;97835.31;;;13.03;44.96
13387;BME280;6763;48.524;9.044;2023-04-27T00:23:06;97831.78;;;13.06;45.43
13387;BME280;6763;48.524;9.044;2023-04-27T00:25:31;97843.91;;;13.05;45.49
13387;BME280;6763;48.524;9.044;2023-04-27T00:27:57;97836.97;;;13.07;45.24
13387;BME280;6763;48.524;9.044;2023-04-27T00:30:22;97836.13;;;13.07;45.14
13387;BME280;6763;48.524;9.044;2023-04-27T00:32:48;97832.66;;;13.05;45.22
13387;BME280;6763;48.524;9.044;2023-04-27T00:35:13;97834.47;;;13.03;45.44
13387;BME280;6763;48.524;9.044;2023-04-27T00:37:38;97840.59;;;13.00;45.08
13387;BME280;6763;48.524;9.044;2023-04-27T00:40:04;97833.75;;;12.98;44.99
13387;BME280;6763;48.524;9.044;2023-04-27T00:42:32;97829.47;;;12.95;45.48
13387;BME280;6763;48.524;9.044;2023-04-27T00:44:58;97833.81;;;12.95;45.84
13387;BME280;6763;48.524;9.044;2023-04-27T00:47:23;97826.97;;;12.92;45.49
13387;BME280;6763;48.524;9.044;2023-04-27T00:49:49;97828.69;;;12.92;45.53
13387;BME280;6763;48.524;9.044;2023-04-27T00:52:14;97828.81;;;12.89;45.46
13387;BME280;6763;48.524;9.044;2023-04-27T00:54:40;97818.50;;;12.84;45.65
13387;BME280;6763;48.524;9.044;2023-04-27T00:57:06;97821.16;;;12.83;45.59
13387;BME280;6763;48.524;9.044;2023-04-27T00:59:31;97822.09;;;12.80;45.82
13387;BME280;6763;48.524;9.044;2023-04-27T01:01:57;97813.47;;;12.80;45.53
13387;BME280;6763;48.524;9.044;2023-04-27T01:04:23;97821.19;;;12.81;45.34
13387;BME280;6763;48.524;9.044;2023-04-27T01:06:48;97817.69;;;12.84;45.63
13387;BME280;6763;48.524;9.044;2023-04-27T01:09:14;97821.97;;;12.85;45.44
13387;BME280;6763;48.524;9.044;2023-04-27T01:11:40;97821.97;;;12.85;45.50
13387;BME280;6763;48.524;9.044;2023-04-27T01:14:06;97823.72;;;12.84;45.16
13387;BME280;6763;48.524;9.044;2023-04-27T01:16:32;97828.09;;;12.84;45.41
13387;BME280;6763;48.524;9.044;2023-04-27T01:18:58;97827.22;;;12.83;45.16
13387;BME280;6763;48.524;9.044;2023-04-27T01:21:24;97828.09;;;12.84;45.50
13387;BME280;6763;48.524;9.044;2023-04-27T01:23:50;97826.38;;;12.83;45.13
13387;BME280;6763;48.524;9.044;2023-04-27T01:26:15;97834.16;;;12.83;45.31
13387;BME280;6763;48.524;9.044;2023-04-27T01:28:42;97835.91;;;12.82;45.24
13387;BME280;6763;48.524;9.044;2023-04-27T01:31:09;97838.56;;;12.81;45.79
13387;BME280;6763;48.524;9.044;2023-04-27T01:33:35;97833.38;;;12.79;46.04
13387;BME280;6763;48.524;9.044;2023-04-27T01:36:00;97837.72;;;12.79;45.30
13387;BME280;6763;48.524;9.044;2023-04-27T01:38:26;97838.56;;;12.79;45.42
13387;BME280;6763;48.524;9.044;2023-04-27T01:40:51;97838.56;;;12.79;45.56
13387;BME280;6763;48.524;9.044;2023-04-27T01:43:17;97837.72;;;12.79;45.96
13387;BME280;6763;48.524;9.044;2023-04-27T01:45:42;97842.09;;;12.77;46.66
13387;BME280;6763;48.524;9.044;2023-04-27T01:48:07;97833.56;;;12.73;46.64
13387;BME280;6763;48.524;9.044;2023-04-27T01:50:33;97833.63;;;12.70;46.92
13387;BME280;6763;48.524;9.044;2023-04-27T01:52:58;97838.91;;;12.67;46.88
13387;BME280;6763;48.524;9.044;2023-04-27T01:55:23;97844.16;;;12.66;46.87
13387;BME280;6763;48.524;9.044;2023-04-27T01:57:49;97843.38;;;12.62;47.03
13387;BME280;6763;48.524;9.044;2023-04-27T02:00:14;97842.56;;;12.60;47.24
13387;BME280;6763;48.524;9.044;2023-04-27T02:02:40;97840.84;;;12.59;47.23
13387;BME280;6763;48.524;9.044;2023-04-27T02:05:06;97842.59;;;12.59;47.97
13387;BME280;6763;48.524;9.044;2023-04-27T02:07:31;97844.38;;;12.57;47.51
13387;BME280;6763;48.524;9.044;2023-04-27T02:09:57;97838.38;;;12.53;47.79
13387;BME280;6763;48.524;9.044;2023-04-27T02:12:22;97846.28;;;12.50;47.73
13387;BME280;6763;48.524;9.044;2023-04-27T02:14:47;97842.91;;;12.47;47.70
13387;BME280;6763;48.524;9.044;2023-04-27T02:17:13;97850.72;;;12.45;47.40
13387;BME280;6763;48.524;9.044;2023-04-27T02:19:38;97841.25;;;12.44;47.57
13387;BME280;6763;48.524;9.044;2023-04-27T02:22:03;97850.69;;;12.47;47.45
13387;BME280;6763;48.524;9.044;2023-04-27T02:24:28;97850.72;;;12.45;48.12
13387;BME280;6763;48.524;9.044;2023-04-27T02:26:54;97849.88;;;12.44;47.60
13387;BME280;6763;48.524;9.044;2023-04-27T02:29:19;97856.88;;;12.41;47.44
13387;BME280;6763;48.524;9.044;2023-04-27T02:31:45;97850.88;;;12.39;48.03
13387;BME280;6763;48.524;9.044;2023-04-27T02:34:11;97851.75;;;12.38;48.00
13387;BME280;6763;48.524;9.044;2023-04-27T02:36:36;97850.91;;;12.37;47.42
13387;BME280;6763;48.524;9.044;2023-04-27T02:39:01;97849.22;;;12.36;47.57
13387;BME280;6763;48.524;9.044;2023-04-27T02:41:30;97846.63;;;12.36;47.51
13387;BME280;6763;48.524;9.044;2023-04-27T02:43:56;97849.22;;;12.36;47.54
13387;BME280;6763;48.524;9.044;2023-04-27T02:46:22;97854.41;;;12.36;47.67
13387;BME280;6763;48.524;9.044;2023-04-27T02:48:47;97856.16;;;12.36;47.64
13387;BME280;6763;48.524;9.044;2023-04-27T02:51:12;97852.75;;;12.34;47.57
13387;BME280;6763;48.524;9.044;2023-04-27T02:53:38;97852.75;;;12.34;47.76
13387;BME280;6763;48.524;9.044;2023-04-27T02:56:04;97857.03;;;12.35;47.44
13387;BME280;6763;48.524;9.044;2023-04-27T02:58:29;97853.56;;;12.36;47.50
13387;BME280;6763;48.524;9.044;2023-04-27T03:00:56;97848.34;;;12.36;47.73
13387;BME280;6763;48.524;9.044;2023-04-27T03:03:22;97845.72;;;12.37;47.66
13387;BME280;6763;48.524;9.044;2023-04-27T03:05:47;97860.34;;;12.41;47.67
13387;BME280;6763;48.524;9.044;2023-04-27T03:08:12;97849.94;;;12.41;47.12
13387;BME280;6763;48.524;9.044;2023-04-27T03:10:38;97854.22;;;12.44;47.32
13387;BME280;6763;48.524;9.044;2023-04-27T03:13:03;97855.09;;;12.43;46.93
13387;BME280;6763;48.524;9.044;2023-04-27T03:15:29;97850.75;;;12.43;47.43
13387;BME280;6763;48.524;9.044;2023-04-27T03:17:54;97852.50;;;12.43;47.51
13387;BME280;6763;48.524;9.044;2023-04-27T03:20:20;97852.50;;;12.43;47.32
13387;BME280;6763;48.524;9.044;2023-04-27T03:22:46;97853.34;;;12.43;47.45
13387;BME280;6763;48.524;9.044;2023-04-27T03:25:11;97855.09;;;12.43;47.02
13387;BME280;6763;48.524;9.044;2023-04-27T03:27:37;97859.41;;;12.44;47.15
13387;BME280;6763;48.524;9.044;2023-04-27T03:30:02;97861.09;;;12.45;47.67
13387;BME280;6763;48.524;9.044;2023-04-27T03:32:28;97864.47;;;12.49;47.64
13387;BME280;6763;48.524;9.044;2023-04-27T03:34:54;97861.88;;;12.50;47.76
13387;BME280;6763;48.524;9.044;2023-04-27T03:37:20;97864.34;;;12.53;48.11
13387;BME280;6763;48.524;9.044;2023-04-27T03:39:45;97858.34;;;12.53;47.81
13387;BME280;6763;48.524;9.044;2023-04-27T03:42:11;97863.53;;;12.53;47.95
13387;BME280;6763;48.524;9.044;2023-04-27T03:44:36;97860.09;;;12.51;47.65
13387;BME280;6763;48.524;9.044;2023-04-27T03:47:01;97861.03;;;12.48;47.54
13387;BME280;6763;48.524;9.044;2023-04-27T03:49:26;97864.47;;;12.49;47.77
13387;BME280;6763;48.524;9.044;2023-04-27T03:51:52;97867.88;;;12.51;47.88
13387;BME280;6763;48.524;9.044;2023-04-27T03:54:18;97866.13;;;12.53;47.54
13387;BME280;6763;48.524;9.044;2023-04-27T03:56:43;97867.78;;;12.55;47.93
13387;BME280;6763;48.524;9.044;2023-04-27T03:59:08;97866.88;;;12.56;47.50
13387;BME280;6763;48.524;9.044;2023-04-27T04:01:34;97874.59;;;12.59;47.62
13387;BME280;6763;48.524;9.044;2023-04-27T04:04:00;97870.22;;;12.61;47.74
13387;BME280;6763;48.524;9.044;2023-04-27T04:06:26;97865.81;;;12.63;47.50
13387;BME280;6763;48.524;9.044;2023-04-27T04:08:52;97871.00;;;12.65;47.00
13387;BME280;6763;48.524;9.044;2023-04-27T04:11:17;97872.59;;;12.69;47.56
13387;BME280;6763;48.524;9.044;2023-04-27T04:13:43;97876.94;;;12.70;47.50
13387;BME280;6763;48.524;9.044;2023-04-27T04:16:08;97873.44;;;12.71;47.24
13387;BME280;6763;48.524;9.044;2023-04-27T04:18:34;97872.50;;;12.73;47.49
13387;BME280;6763;48.524;9.044;2023-04-27T04:21:01;97874.19;;;12.74;47.21
13387;BME280;6763;48.524;9.044;2023-04-27T04:23:26;97877.66;;;12.75;47.49
13387;BME280;6763;48.524;9.044;2023-04-27T04:25:55;97876.78;;;12.76;47.79
13387;BME280;6763;48.524;9.044;2023-04-27T04:28:21;97881.84;;;12.80;47.59
13387;BME280;6763;48.524;9.044;2023-04-27T04:30:47;97874.00;;;12.82;47.55
13387;BME280;6763;48.524;9.044;2023-04-27T04:33:13;97882.53;;;12.87;48.03
13387;BME280;6763;48.524;9.044;2023-04-27T04:35:39;97882.44;;;12.90;47.71
13387;BME280;6763;48.524;9.044;2023-04-27T04:38:05;97879.72;;;12.94;47.66
13387;BME280;6763;48.524;9.044;2023-04-27T04:40:31;97877.91;;;12.98;47.40
13387;BME280;6763;48.524;9.044;2023-04-27T04:42:56;97882.97;;;13.02;47.59
13387;BME280;6763;48.524;9.044;2023-04-27T04:45:22;97874.25;;;13.07;47.21
13387;BME280;6763;48.524;9.044;2023-04-27T04:47:50;97876.72;;;13.11;46.95
13387;BME280;6763;48.524;9.044;2023-04-27T04:50:18;97887.03;;;13.14;46.87
13387;BME280;6763;48.524;9.044;2023-04-27T04:52:43;97886.88;;;13.20;47.49
13387;BME280;6763;48.524;9.044;2023-04-27T04:55:09;97889.34;;;13.25;47.23
13387;BME280;6763;48.524;9.044;2023-04-27T04:57:35;97896.94;;;13.32;47.37
13387;BME280;6763;48.524;9.044;2023-04-27T05:00:00;97886.44;;;13.35;47.24
13387;BME280;6763;48.524;9.044;2023-04-27T05:02:26;97885.44;;;13.39;47.59
13387;BME280;6763;48.524;9.044;2023-04-27T05:04:51;97887.91;;;13.44;46.80
13387;BME280;6763;48.524;9.044;2023-04-27T05:07:16;97880.75;;;13.52;46.83
13387;BME280;6763;48.524;9.044;2023-04-27T05:09:42;97886.66;;;13.58;47.08
13387;BME280;6763;48.524;9.044;2023-04-27T05:12:07;97890.81;;;13.64;46.46
13387;BME280;6763;48.524;9.044;2023-04-27T05:14:33;97882.00;;;13.68;46.99
13387;BME280;6763;48.524;9.044;2023-04-27T05:16:58;97888.88;;;13.71;47.33
13387;BME280;6763;48.524;9.044;2023-04-27T05:19:24;97886.34;;;13.69;46.98
13387;BME280;6763;48.524;9.044;2023-04-27T05:21:49;97891.53;;;13.69;47.33
13387;BME280;6763;48.524;9.044;2023-04-27T05:24:15;97890.63;;;13.70;47.30
13387;BME280;6763;48.524;9.044;2023-04-27T05:26:43;97888.94;;;13.69;47.35
13387;BME280;6763;48.524;9.044;2023-04-27T05:29:09;97891.53;;;13.69;47.19
13387;BME280;6763;48.524;9.044;2023-04-27T05:31:35;97895.81;;;13.70;47.16
13387;BME280;6763;48.524;9.044;2023-04-27T05:34:00;97888.00;;;13.72;46.76
13387;BME280;6763;48.524;9.044;2023-04-27T05:36:26;97893.91;;;13.77;47.25
13387;BME280;6763;48.524;9.044;2023-04-27T05:38:52;97906.69;;;13.84;46.99
13387;BME280;6763;48.524;9.044;2023-04-27T05:41:18;97902.97;;;13.93;47.07
13387;BME280;6763;48.524;9.044;2023-04-27T05:43:43;97901.81;;;14.01;47.10
13387;BME280;6763;48.524;9.044;2023-04-27T05:46:12;97889.25;;;14.15;46.62
13387;BME280;6763;48.524;9.044;2023-04-27T05:48:37;97895.72;;;14.30;46.02
13387;BME280;6763;48.524;9.044;2023-04-27T05:51:03;97897.06;;;14.43;46.23
13387;BME280;6763;48.524;9.044;2023-04-27T05:53:29;97899.25;;;14.55;45.76
13387;BME280;6763;48.524;9.044;2023-04-27T05:55:58;97901.47;;;14.67;45.35
13387;BME280;6763;48.524;9.044;2023-04-27T05:58:25;97901.84;;;14.81;44.93
13387;BME280;6763;48.524;9.044;2023-04-27T06:00:50;97905.72;;;14.96;44.95
13387;BME280;6763;48.524;9.044;2023-04-27T06:03:16;97911.38;;;15.09;44.56
13387;BME280;6763;48.524;9.044;2023-04-27T06:05:42;97906.50;;;15.23;44.47
13387;BME280;6763;48.524;9.044;2023-04-27T06:08:07;97910.44;;;15.34;44.29
13387;BME280;6763;48.524;9.044;2023-04-27T06:10:32;97911.88;;;15.43;43.90
13387;BME280;6763;48.524;9.044;2023-04-27T06:12:58;97916.84;;;15.50;43.67
13387;BME280;6763;48.524;9.044;2023-04-27T06:15:23;97915.78;;;15.56;43.60
13387;BME280;6763;48.524;9.044;2023-04-27T06:17:48;97921.44;;;15.67;43.39
13387;BME280;6763;48.524;9.044;2023-04-27T06:20:14;97926.28;;;15.78;42.89
13387;BME280;6763;48.524;9.044;2023-04-27T06:22:39;97923.44;;;15.84;42.78
13387;BME280;6763;48.524;9.044;2023-04-27T06:25:05;97922.00;;;15.98;42.82
13387;BME280;6763;48.524;9.044;2023-04-27T06:27:31;97925.13;;;16.08;42.34
13387;BME280;6763;48.524;9.044;2023-04-27T06:29:57;97924.94;;;16.12;41.82
13387;BME280;6763;48.524;9.044;2023-04-27T06:32:22;97934.34;;;16.17;41.86
13387;BME280;6763;48.524;9.044;2023-04-27T06:34:48;97934.13;;;16.23;41.60
13387;BME280;6763;48.524;9.044;2023-04-27T06:37:14;97929.81;;;16.22;41.53
13387;BME280;6763;48.524;9.044;2023-04-27T06:39:42;97932.31;;;16.25;41.46
13387;BME280;6763;48.524;9.044;2023-04-27T06:42:07;97930.31;;;16.31;41.22
13387;BME280;6763;48.524;9.044;2023-04-27T06:44:32;97934.00;;;16.47;40.98
13387;BME280;6763;48.524;9.044;2023-04-27T06:46:58;97934.53;;;16.57;40.35
13387;BME280;6763;48.524;9.044;2023-04-27T06:49:23;97929.88;;;16.65;39.93
13387;BME280;6763;48.524;9.044;2023-04-27T06:51:49;97925.88;;;16.77;39.40
13387;BME280;6763;48.524;9.044;2023-04-27T06:54:14;97929.91;;;16.85;39.26
13387;BME280;6763;48.524;9.044;2023-04-27T06:56:40;97935.00;;;16.88;38.85
13387;BME280;6763;48.524;9.044;2023-04-27T06:59:07;97928.72;;;16.92;38.88
13387;BME280;6763;48.524;9.044;2023-04-27T07:01:32;97930.31;;;16.96;38.73
13387;BME280;6763;48.524;9.044;2023-04-27T07:03:58;97937.88;;;17.02;38.23
13387;BME280;6763;48.524;9.044;2023-04-27T07:06:23;97923.38;;;17.15;38.35
13387;BME280;6763;48.524;9.044;2023-04-27T07:08:50;97927.69;;;17.36;37.92
13387;BME280;6763;48.524;9.044;2023-04-27T07:11:15;97923.44;;;17.54;36.85
13387;BME280;6763;48.524;9.044;2023-04-27T07:13:41;97920.34;;;17.65;36.80
13387;BME280;6763;48.524;9.044;2023-04-27T07:16:06;97924.88;;;17.80;36.64
13387;BME280;6763;48.524;9.044;2023-04-27T07:18:32;97926.97;;;17.92;36.14
13387;BME280;6763;48.524;9.044;2023-04-27T07:20:57;97925.00;;;17.97;36.00
13387;BME280;6763;48.524;9.044;2023-04-27T07:23:22;97922.16;;;18.02;35.76
13387;BME280;6763;48.524;9.044;2023-04-27T07:25:48;97927.19;;;18.06;35.81
13387;BME280;6763;48.524;9.044;2023-04-27T07:28:14;97925.13;;;18.13;35.28
13387;BME280;6763;48.524;9.044;2023-04-27T07:30:39;97925.31;;;18.08;35.04
13387;BME280;6763;48.524;9.044;2023-04-27T07:33:06;97927.03;;;18.09;35.28
13387;BME280;6763;48.524;9.044;2023-04-27T07:35:32;97927.63;;;18.16;35.32
13387;BME280;6763;48.524;9.044;2023-04-27T07:37:59;97919.31;;;18.25;34.72
13387;BME280;6763;48.524;9.044;2023-04-27T07:40:26;97917.03;;;18.36;34.88
13387;BME280;6763;48.524;9.044;2023-04-27T07:42:52;97915.47;;;18.50;34.26
13387;BME280;6763;48.524;9.044;2023-04-27T07:45:18;97910.72;;;18.58;33.65
13387;BME280;6763;48.524;9.044;2023-04-27T07:47:43;97908.63;;;18.65;33.98
13387;BME280;6763;48.524;9.044;2023-04-27T07:50:09;97916.44;;;18.84;33.75
13387;BME280;6763;48.524;9.044;2023-04-27T07:52:35;97915.31;;;19.06;33.44
13387;BME280;6763;48.524;9.044;2023-04-27T07:55:01;97908.13;;;19.27;33.28
13387;BME280;6763;48.524;9.044;2023-04-27T07:57:27;97910.50;;;19.49;32.98
13387;BME280;6763;48.524;9.044;2023-04-27T07:59:52;97913.28;;;19.63;32.44
13387;BME280;6763;48.524;9.044;2023-04-27T08:02:18;97909.06;;;19.76;32.58
13387;BME280;6763;48.524;9.044;2023-04-27T08:04:43;97907.28;;;19.92;32.24
13387;BME280;6763;48.524;9.044;2023-04-27T08:07:09;97911.97;;;20.03;32.20
13387;BME280;6763;48.524;9.044;2023-04-27T08:09:34;97900.06;;;20.13;32.12
13387;BME280;6763;48.524;9.044;2023-04-27T08:12:00;97911.91;;;20.20;31.98
13387;BME280;6763;48.524;9.044;2023-04-27T08:14:27;97909.31;;;20.35;31.72
13387;BME280;6763;48.524;9.044;2023-04-27T08:16:52;97902.66;;;20.60;31.66
13387;BME280;6763;48.524;9.044;2023-04-27T08:19:17;97907.56;;;20.81;31.34
13387;BME280;6763;48.524;9.044;2023-04-27T08:21:43;97900.47;;;20.97;31.26
13387;BME280;6763;48.524;9.044;2023-04-27T08:24:08;97898.91;;;21.09;30.48
13387;BME280;6763;48.524;9.044;2023-04-27T08:26:34;97893.31;;;21.15;30.72
13387;BME280;6763;48.524;9.044;2023-04-27T08:29:00;97894.63;;;21.22;30.28
13387;BME280;6763;48.524;9.044;2023-04-27T08:31:26;97894.63;;;21.22;30.23
13387;BME280;6763;48.524;9.044;2023-04-27T08:33:52;97890.56;;;21.17;29.96
13387;BME280;6763;48.524;9.044;2023-04-27T08:36:20;97883.34;;;21.06;30.27
13387;BME280;6763;48.524;9.044;2023-04-27T08:38:48;97878.47;;;20.98;30.63
13387;BME280;6763;48.524;9.044;2023-04-27T08:41:18;97878.72;;;21.10;30.61
13387;BME280;6763;48.524;9.044;2023-04-27T08:43:45;97876.13;;;21.24;30.56
13387;BME280;6763;48.524;9.044;2023-04-27T08:46:10;97881.38;;;21.38;30.50
13387;BME280;6763;48.524;9.044;2023-04-27T08:48:36;97875.75;;;21.44;30.64
13387;BME280;6763;48.524;9.044;2023-04-27T08:51:02;97880.75;;;21.48;30.73
13387;BME280;6763;48.524;9.044;2023-04-27T08:53:27;97877.56;;;21.57;30.67
13387;BME280;6763;48.524;9.044;2023-04-27T08:55:53;97878.03;;;21.78;30.50
13387;BME280;6763;48.524;9.044;2023-04-27T08:58:20;97872.56;;;21.95;29.36
13387;BME280;6763;48.524;9.044;2023-04-27T09:00:46;97873.13;;;22.00;29.10
13387;BME280;6763;48.524;9.044;2023-04-27T09:03:23;97874.66;;;22.04;28.85
13387;BME280;6763;48.524;9.044;2023-04-27T09:05:49;97874.25;;;22.10;29.07
13387;BME280;6763;48.524;9.044;2023-04-27T09:08:15;97869.59;;;22.28;28.65
13387;BME280;6763;48.524;9.044;2023-04-27T09:10:47;97870.75;;;22.51;27.98
13387;BME280;6763;48.524;9.044;2023-04-27T09:13:14;97873.34;;;22.65;27.88
13387;BME280;6763;48.524;9.044;2023-04-27T09:15:47;97877.19;;;22.73;26.92
13387;BME280;6763;48.524;9.044;2023-04-27T09:18:18;97868.97;;;22.78;26.57
13387;BME280;6763;48.524;9.044;2023-04-27T09:20:45;97874.69;;;22.84;26.04
13387;BME280;6763;48.524;9.044;2023-04-27T09:23:24;97877.69;;;23.05;25.08
13387;BME280;6763;48.524;9.044;2023-04-27T09:25:50;97870.63;;;23.31;24.21
13387;BME280;6763;48.524;9.044;2023-04-27T09:28:15;97868.75;;;23.45;23.34
13387;BME280;6763;48.524;9.044;2023-04-27T09:30:50;97867.72;;;23.48;22.35
13387;BME280;6763;48.524;9.044;2023-04-27T09:33:22;97868.34;;;23.52;22.54
13387;BME280;6763;48.524;9.044;2023-04-27T09:35:47;97858.81;;;23.62;22.53
13387;BME280;6763;48.524;9.044;2023-04-27T09:38:13;97858.16;;;23.96;22.51
13387;BME280;6763;48.524;9.044;2023-04-27T09:40:39;97864.13;;;24.23;22.26
13387;BME280;6763;48.524;9.044;2023-04-27T09:43:05;97860.44;;;24.49;22.32
13387;BME280;6763;48.524;9.044;2023-04-27T09:45:32;97861.56;;;24.82;22.02
13387;BME280;6763;48.524;9.044;2023-04-27T09:47:59;97859.75;;;25.17;21.42
13387;BME280;6763;48.524;9.044;2023-04-27T09:50:25;97858.84;;;25.40;21.15
13387;BME280;6763;48.524;9.044;2023-04-27T09:52:50;97856.25;;;25.62;20.82
13387;BME280;6763;48.524;9.044;2023-04-27T09:55:33;97858.41;;;25.79;20.15
13387;BME280;6763;48.524;9.044;2023-04-27T09:58:23;97855.75;;;25.91;19.55
13387;BME280;6763;48.524;9.044;2023-04-27T10:09:14;97857.00;;;26.52;19.15
13387;BME280;6763;48.524;9.044;2023-04-27T10:11:42;97852.50;;;26.63;19.15
13387;BME280;6763;48.524;9.044;2023-04-27T10:14:16;97850.88;;;26.83;18.42
13387;BME280;6763;48.524;9.044;2023-04-27T10:16:53;97849.53;;;26.88;17.52
13387;BME280;6763;48.524;9.044;2023-04-27T10:19:22;97848.13;;;26.84;18.27
13387;BME280;6763;48.524;9.044;2023-04-27T10:21:56;97850.63;;;26.86;18.42
13387;BME280;6763;48.524;9.044;2023-04-27T10:24:37;97852.97;;;26.68;18.26
13387;BME280;6763;48.524;9.044;2023-04-27T10:27:05;97856.59;;;26.35;18.95
13387;BME280;6763;48.524;9.044;2023-04-27T10:29:39;97855.75;;;26.24;19.18
13387;BME280;6763;48.524;9.044;2023-04-27T10:32:25;97840.06;;;26.21;19.52
13387;BME280;6763;48.524;9.044;2023-04-27T10:35:04;97850.44;;;26.13;19.23
13387;BME280;6763;48.524;9.044;2023-04-27T10:37:38;97843.81;;;26.18;19.07
13387;BME280;6763;48.524;9.044;2023-04-27T10:40:08;97837.66;;;26.18;18.99
13387;BME280;6763;48.524;9.044;2023-04-27T10:42:34;97842.22;;;26.05;19.30
13387;BME280;6763;48.524;9.044;2023-04-27T10:45:00;97842.00;;;25.97;19.63
13387;BME280;6763;48.524;9.044;2023-04-27T10:47:36;97844.69;;;25.85;19.44
13387;BME280;6763;48.524;9.044;2023-04-27T10:50:03;97838.28;;;25.77;19.67
13387;BME280;6763;48.524;9.044;2023-04-27T10:52:29;97842.75;;;25.65;19.57
13387;BME280;6763;48.524;9.044;2023-04-27T10:54:54;97836.34;;;25.57;19.94
13387;BME280;6763;48.524;9.044;2023-04-27T10:57:19;97837.41;;;25.43;20.27
13387;BME280;6763;48.524;9.044;2023-04-27T10:59:49;97842.22;;;25.38;20.58
13387;BME280;6763;48.524;9.044;2023-04-27T11:02:15;97845.59;;;25.40;20.06
13387;BME280;6763;48.524;9.044;2023-04-27T11:04:40;97839.31;;;25.41;20.60
13387;BME280;6763;48.524;9.044;2023-04-27T11:07:07;97841.03;;;25.53;20.14
13387;BME280;6763;48.524;9.044;2023-04-27T11:09:34;97833.34;;;25.72;20.25
13387;BME280;6763;48.524;9.044;2023-04-27T11:12:00;97833.94;;;26.09;20.31
13387;BME280;6763;48.524;9.044;2023-04-27T11:14:26;97832.69;;;26.35;19.96
13387;BME280;6763;48.524;9.044;2023-04-27T11:16:51;97835.94;;;26.28;19.76
13387;BME280;6763;48.524;9.044;2023-04-27T11:19:17;97827.97;;;26.28;20.19
13387;BME280;6763;48.524;9.044;2023-04-27T11:21:42;97833.91;;;26.31;19.92
13387;BME280;6763;48.524;9.044;2023-04-27T11:24:08;97824.72;;;26.35;19.84
13387;BME280;6763;48.524;9.044;2023-04-27T11:26:34;97824.41;;;26.61;19.93
13387;BME280;6763;48.524;9.044;2023-04-27T11:29:02;97823.22;;;26.85;19.61
13387;BME280;6763;48.524;9.044;2023-04-27T11:31:45;97820.91;;;26.92;19.36
13387;BME280;6763;48.524;9.044;2023-04-27T11:34:21;97822.91;;;26.99;19.57
13387;BME280;6763;48.524;9.044;2023-04-27T11:37:00;97820.44;;;26.87;19.48
13387;BME280;6763;48.524;9.044;2023-04-27T11:39:27;97819.59;;;26.75;19.59
13387;BME280;6763;48.524;9.044;2023-04-27T11:41:53;97817.97;;;26.63;19.94
13387;BME280;6763;48.524;9.044;2023-04-27T11:44:24;97824.78;;;26.56;19.92
13387;BME280;6763;48.524;9.044;2023-04-27T11:46:50;97828.66;;;26.41;20.22
13387;BME280;6763;48.524;9.044;2023-04-27T11:49:16;97827.00;;;26.40;20.17
13387;BME280;6763;48.524;9.044;2023-04-27T11:51:41;97820.44;;;26.55;20.29
13387;BME280;6763;48.524;9.044;2023-04-27T11:54:09;97823.94;;;26.56;19.97
13387;BME280;6763;48.524;9.044;2023-04-27T11:56:43;97815.66;;;26.70;19.61
13387;BME280;6763;48.524;9.044;2023-04-27T11:59:20;97810.69;;;26.76;19.73
13387;BME280;6763;48.524;9.044;2023-04-27T12:01:45;97807.84;;;26.57;19.96
13387;BME280;6763;48.524;9.044;2023-04-27T12:04:11;97805.47;;;26.75;19.79
13387;BME280;6763;48.524;9.044;2023-04-27T12:06:36;97804.31;;;26.99;19.77
13387;BME280;6763;48.524;9.044;2023-04-27T12:09:02;97797.09;;;27.11;19.47
13387;BME280;6763;48.524;9.044;2023-04-27T12:11:29;97792.63;;;27.12;19.61
13387;BME280;6763;48.524;9.044;2023-04-27T12:13:55;97792.19;;;27.06;19.65
13387;BME280;6763;48.524;9.044;2023-04-27T12:16:21;97800.22;;;26.95;19.96
13387;BME280;6763;48.524;9.044;2023-04-27T12:18:49;97799.00;;;26.99;20.03
13387;BME280;6763;48.524;9.044;2023-04-27T12:21:15;97794.09;;;26.95;20.00
13387;BME280;6763;48.524;9.044;2023-04-27T12:23:41;97789.59;;;26.95;20.17
13387;BME280;6763;48.524;9.044;2023-04-27T12:26:06;97795.94;;;27.04;20.15
13387;BME280;6763;48.524;9.044;2023-04-27T12:28:31;97791.88;;;27.00;19.81
13387;BME280;6763;48.524;9.044;2023-04-27T12:30:57;97794.19;;;26.93;19.78
13387;BME280;6763;48.524;9.044;2023-04-27T12:33:22;97794.09;;;26.95;19.89
13387;BME280;6763;48.524;9.044;2023-04-27T12:35:47;97794.44;;;26.90;19.88
13387;BME280;6763;48.524;9.044;2023-04-27T12:38:13;97797.63;;;26.84;20.02
13387;BME280;6763;48.524;9.044;2023-04-27T12:40:38;97794.63;;;26.78;20.09
13387;BME280;6763;48.524;9.044;2023-04-27T12:43:04;97796.78;;;26.84;20.53
13387;BME280;6763;48.524;9.044;2023-04-27T12:45:29;97792.44;;;26.83;20.37
13387;BME280;6763;48.524;9.044;2023-04-27T12:47:55;97796.22;;;26.69;20.36
13387;BME280;6763;48.524;9.044;2023-04-27T12:50:20;97791.13;;;26.77;20.50
13387;BME280;6763;48.524;9.044;2023-04-27T12:52:46;97791.13;;;26.98;20.19
13387;BME280;6763;48.524;9.044;2023-04-27T12:55:12;97793.69;;;26.99;20.17
13387;BME280;6763;48.524;9.044;2023-04-27T12:57:37;97787.13;;;27.03;19.83
13387;BME280;6763;48.524;9.044;2023-04-27T13:00:03;97787.06;;;27.15;20.04
13387;BME280;6763;48.524;9.044;2023-04-27T13:02:32;97768.38;;;27.26;19.55
13387;BME280;6763;48.524;9.044;2023-04-27T13:04:58;97770.38;;;27.63;19.29
13387;BME280;6763;48.524;9.044;2023-04-27T13:07:24;97761.91;;;27.89;19.06
13387;BME280;6763;48.524;9.044;2023-04-27T13:09:49;97761.72;;;28.01;19.29
13387;BME280;6763;48.524;9.044;2023-04-27T13:12:15;97758.44;;;27.98;18.84
13387;BME280;6763;48.524;9.044;2023-04-27T13:14:40;97760.25;;;27.88;19.17